KNZY/NZY METAR and TAF weather

Enter ICAO airport designator
Station Type Date Time Source
KNZY METAR 2020/11/27 02:52 UTC NOAA

KNZY 270252Z AUTO 29003KT 10SM CLR 14/11 A3003 RMK AO2 SLP168 T01440106 52014


Station Type Date Time Source
KNZY Decoded METAR 2020/11/27 02:52 UTC NOAA

NAS NORTH ISLAND, SAN DIEGO, CA, United States (KNZY) 32-42N 117-13W 14M
Nov 26, 2020 - 09:52 PM EST / 2020.11.27 0252 UTC
Wind: from the WNW (290 degrees) at 3 MPH (3 KT):0
Visibility: 10 mile(s):0
Sky conditions: clear
Temperature: 57.9 F (14.4 C)
Dew Point: 51.1 F (10.6 C)
Relative Humidity: 77%
Pressure (altimeter): 30.03 in. Hg (1016 hPa)
Pressure tendency: 0.04 inches (1.4 hPa) higher than three hours ago
ob: KNZY 270252Z AUTO 29003KT 10SM CLR 14/11 A3003 RMK AO2 SLP168 T01440106 52014
cycle: 3

Station Type Date Time Source
KNZY TAF 2020/11/25 23:03 UTC NOAA

TAF KNZY 2523/2623 28009KT 9999 FEW015 QNH2999INS
FM260200 VRB05KT 9999 SCT015 QNH3000INS
BECMG 2605/2607 VRB05KT 9999 BKN015 BKN200 QNH2995INS
FM262000 29009KT 9999 SCT015 SCT200 QNH2992INS T11/2612Z T18/2621Z LAST NO
AMDS NEXT 2815 FS30022

Example: see airport list